sensor_id;sensor_type;location;lat;lon;timestamp;P1;durP1;ratioP1;P2;durP2;ratioP2
71777;SDS011;59609;52.430;4.668;2024-01-30T00:01:52;28.05;;;14.63;;
71777;SDS011;59609;52.430;4.668;2024-01-30T00:04:17;24.67;;;13.70;;
71777;SDS011;59609;52.430;4.668;2024-01-30T00:06:43;32.95;;;14.57;;
71777;SDS011;59609;52.430;4.668;2024-01-30T00:09:09;22.98;;;12.93;;
71777;SDS011;59609;52.430;4.668;2024-01-30T00:11:35;26.13;;;13.35;;
71777;SDS011;59609;52.430;4.668;2024-01-30T00:14:01;27.88;;;14.07;;
71777;SDS011;59609;52.430;4.668;2024-01-30T00:16:28;25.83;;;13.30;;
71777;SDS011;59609;52.430;4.668;2024-01-30T00:18:54;28.10;;;14.13;;
71777;SDS011;59609;52.430;4.668;2024-01-30T00:21:20;23.77;;;12.63;;
71777;SDS011;59609;52.430;4.668;2024-01-30T00:23:45;29.55;;;13.48;;
71777;SDS011;59609;52.430;4.668;2024-01-30T00:26:11;26.70;;;12.27;;
71777;SDS011;59609;52.430;4.668;2024-01-30T00:28:37;24.63;;;13.27;;
71777;SDS011;59609;52.430;4.668;2024-01-30T00:31:03;24.25;;;13.80;;
71777;SDS011;59609;52.430;4.668;2024-01-30T00:33:29;25.95;;;12.50;;
71777;SDS011;59609;52.430;4.668;2024-01-30T00:35:54;22.58;;;11.93;;
71777;SDS011;59609;52.430;4.668;2024-01-30T00:38:20;24.98;;;13.48;;
71777;SDS011;59609;52.430;4.668;2024-01-30T00:40:45;27.15;;;13.48;;
71777;SDS011;59609;52.430;4.668;2024-01-30T00:43:11;25.38;;;12.55;;
71777;SDS011;59609;52.430;4.668;2024-01-30T00:45:36;26.15;;;13.27;;
71777;SDS011;59609;52.430;4.668;2024-01-30T00:48:01;25.42;;;13.27;;
71777;SDS011;59609;52.430;4.668;2024-01-30T00:50:27;23.05;;;12.02;;
71777;SDS011;59609;52.430;4.668;2024-01-30T00:52:52;22.83;;;12.02;;
71777;SDS011;59609;52.430;4.668;2024-01-30T00:55:18;22.35;;;12.02;;
71777;SDS011;59609;52.430;4.668;2024-01-30T00:57:43;29.50;;;12.73;;
71777;SDS011;59609;52.430;4.668;2024-01-30T01:00:08;23.88;;;12.13;;
71777;SDS011;59609;52.430;4.668;2024-01-30T01:02:35;23.85;;;12.40;;
71777;SDS011;59609;52.430;4.668;2024-01-30T01:05:00;22.17;;;11.68;;
71777;SDS011;59609;52.430;4.668;2024-01-30T01:07:26;22.00;;;11.80;;
71777;SDS011;59609;52.430;4.668;2024-01-30T01:09:51;24.70;;;12.50;;
71777;SDS011;59609;52.430;4.668;2024-01-30T01:12:17;23.73;;;12.90;;
71777;SDS011;59609;52.430;4.668;2024-01-30T01:14:42;26.17;;;11.50;;
71777;SDS011;59609;52.430;4.668;2024-01-30T01:17:07;26.83;;;12.15;;
71777;SDS011;59609;52.430;4.668;2024-01-30T01:19:33;23.90;;;12.90;;
71777;SDS011;59609;52.430;4.668;2024-01-30T01:21:58;21.92;;;11.23;;
71777;SDS011;59609;52.430;4.668;2024-01-30T01:24:24;24.02;;;11.73;;
71777;SDS011;59609;52.430;4.668;2024-01-30T01:26:50;24.25;;;12.30;;
71777;SDS011;59609;52.430;4.668;2024-01-30T01:29:15;23.30;;;12.18;;
71777;SDS011;59609;52.430;4.668;2024-01-30T01:31:41;22.00;;;11.25;;
71777;SDS011;59609;52.430;4.668;2024-01-30T01:34:09;27.15;;;13.02;;
71777;SDS011;59609;52.430;4.668;2024-01-30T01:36:35;20.42;;;11.88;;
71777;SDS011;59609;52.430;4.668;2024-01-30T01:39:01;24.48;;;10.88;;
71777;SDS011;59609;52.430;4.668;2024-01-30T01:41:29;18.38;;;11.02;;
71777;SDS011;59609;52.430;4.668;2024-01-30T01:43:58;21.75;;;11.98;;
71777;SDS011;59609;52.430;4.668;2024-01-30T01:46:26;21.67;;;11.88;;
71777;SDS011;59609;52.430;4.668;2024-01-30T01:48:52;23.23;;;12.05;;
71777;SDS011;59609;52.430;4.668;2024-01-30T01:51:18;20.80;;;11.45;;
71777;SDS011;59609;52.430;4.668;2024-01-30T01:53:44;19.80;;;12.18;;
71777;SDS011;59609;52.430;4.668;2024-01-30T01:56:10;20.63;;;12.10;;
71777;SDS011;59609;52.430;4.668;2024-01-30T01:58:35;19.77;;;11.55;;
71777;SDS011;59609;52.430;4.668;2024-01-30T02:01:02;23.13;;;12.05;;
71777;SDS011;59609;52.430;4.668;2024-01-30T02:03:28;21.00;;;13.07;;
71777;SDS011;59609;52.430;4.668;2024-01-30T02:05:55;19.25;;;11.27;;
71777;SDS011;59609;52.430;4.668;2024-01-30T02:08:22;24.90;;;12.38;;
71777;SDS011;59609;52.430;4.668;2024-01-30T02:10:48;22.88;;;12.35;;
71777;SDS011;59609;52.430;4.668;2024-01-30T02:13:13;18.60;;;11.40;;
71777;SDS011;59609;52.430;4.668;2024-01-30T02:15:39;20.42;;;12.35;;
71777;SDS011;59609;52.430;4.668;2024-01-30T02:18:04;22.40;;;11.98;;
71777;SDS011;59609;52.430;4.668;2024-01-30T02:20:30;20.75;;;10.43;;
71777;SDS011;59609;52.430;4.668;2024-01-30T02:22:57;27.55;;;12.32;;
71777;SDS011;59609;52.430;4.668;2024-01-30T02:25:39;22.38;;;12.13;;
71777;SDS011;59609;52.430;4.668;2024-01-30T02:28:14;20.95;;;11.55;;
71777;SDS011;59609;52.430;4.668;2024-01-30T02:33:05;20.20;;;10.63;;
71777;SDS011;59609;52.430;4.668;2024-01-30T02:35:31;19.67;;;11.25;;
71777;SDS011;59609;52.430;4.668;2024-01-30T02:37:57;20.15;;;12.13;;
71777;SDS011;59609;52.430;4.668;2024-01-30T02:40:22;21.95;;;11.43;;
71777;SDS011;59609;52.430;4.668;2024-01-30T02:42:47;22.60;;;11.63;;
71777;SDS011;59609;52.430;4.668;2024-01-30T02:45:13;19.70;;;11.52;;
71777;SDS011;59609;52.430;4.668;2024-01-30T02:47:38;22.88;;;12.20;;
71777;SDS011;59609;52.430;4.668;2024-01-30T02:50:04;20.80;;;11.48;;
71777;SDS011;59609;52.430;4.668;2024-01-30T02:52:30;25.00;;;11.88;;
71777;SDS011;59609;52.430;4.668;2024-01-30T02:54:55;20.40;;;11.27;;
71777;SDS011;59609;52.430;4.668;2024-01-30T02:57:20;22.73;;;11.65;;
71777;SDS011;59609;52.430;4.668;2024-01-30T02:59:46;19.50;;;11.65;;
71777;SDS011;59609;52.430;4.668;2024-01-30T03:02:11;20.77;;;11.63;;
71777;SDS011;59609;52.430;4.668;2024-01-30T03:04:36;23.40;;;11.75;;
71777;SDS011;59609;52.430;4.668;2024-01-30T03:07:02;20.15;;;11.95;;
71777;SDS011;59609;52.430;4.668;2024-01-30T03:09:28;20.33;;;11.55;;
71777;SDS011;59609;52.430;4.668;2024-01-30T03:11:53;19.80;;;10.82;;
71777;SDS011;59609;52.430;4.668;2024-01-30T03:14:19;20.92;;;12.05;;
71777;SDS011;59609;52.430;4.668;2024-01-30T03:16:44;21.25;;;11.98;;
71777;SDS011;59609;52.430;4.668;2024-01-30T03:19:09;17.30;;;10.10;;
71777;SDS011;59609;52.430;4.668;2024-01-30T03:21:35;18.90;;;10.55;;
71777;SDS011;59609;52.430;4.668;2024-01-30T03:24:00;23.73;;;10.93;;
71777;SDS011;59609;52.430;4.668;2024-01-30T03:26:25;17.48;;;10.13;;
71777;SDS011;59609;52.430;4.668;2024-01-30T03:28:51;16.90;;;9.65;;
71777;SDS011;59609;52.430;4.668;2024-01-30T03:31:16;19.48;;;10.38;;
71777;SDS011;59609;52.430;4.668;2024-01-30T03:33:42;20.63;;;10.68;;
71777;SDS011;59609;52.430;4.668;2024-01-30T03:36:07;20.25;;;10.88;;
71777;SDS011;59609;52.430;4.668;2024-01-30T03:38:33;23.45;;;11.15;;
71777;SDS011;59609;52.430;4.668;2024-01-30T03:40:59;18.15;;;11.02;;
71777;SDS011;59609;52.430;4.668;2024-01-30T03:43:25;21.10;;;11.10;;
71777;SDS011;59609;52.430;4.668;2024-01-30T03:45:50;19.77;;;11.10;;
71777;SDS011;59609;52.430;4.668;2024-01-30T03:48:16;23.23;;;11.35;;
71777;SDS011;59609;52.430;4.668;2024-01-30T03:50:41;21.50;;;11.45;;
71777;SDS011;59609;52.430;4.668;2024-01-30T03:53:06;21.77;;;11.40;;
71777;SDS011;59609;52.430;4.668;2024-01-30T03:55:32;17.23;;;9.95;;
71777;SDS011;59609;52.430;4.668;2024-01-30T03:57:57;19.23;;;10.95;;
71777;SDS011;59609;52.430;4.668;2024-01-30T04:00:22;16.15;;;9.95;;
71777;SDS011;59609;52.430;4.668;2024-01-30T04:02:48;18.40;;;10.82;;
71777;SDS011;59609;52.430;4.668;2024-01-30T04:05:13;23.52;;;11.15;;
71777;SDS011;59609;52.430;4.668;2024-01-30T04:07:38;23.30;;;10.90;;
71777;SDS011;59609;52.430;4.668;2024-01-30T04:10:04;19.05;;;10.38;;
71777;SDS011;59609;52.430;4.668;2024-01-30T04:12:33;15.15;;;8.32;;
71777;SDS011;59609;52.430;4.668;2024-01-30T04:14:58;17.38;;;9.93;;
71777;SDS011;59609;52.430;4.668;2024-01-30T04:17:24;20.38;;;10.45;;
71777;SDS011;59609;52.430;4.668;2024-01-30T04:19:49;17.88;;;10.13;;
71777;SDS011;59609;52.430;4.668;2024-01-30T04:22:14;18.00;;;10.57;;
71777;SDS011;59609;52.430;4.668;2024-01-30T04:24:40;15.20;;;8.85;;
71777;SDS011;59609;52.430;4.668;2024-01-30T04:27:05;17.05;;;10.55;;
71777;SDS011;59609;52.430;4.668;2024-01-30T04:29:30;13.60;;;8.73;;
71777;SDS011;59609;52.430;4.668;2024-01-30T04:31:57;15.18;;;8.90;;
71777;SDS011;59609;52.430;4.668;2024-01-30T04:34:22;19.38;;;9.20;;
71777;SDS011;59609;52.430;4.668;2024-01-30T04:36:48;16.98;;;8.98;;
71777;SDS011;59609;52.430;4.668;2024-01-30T04:39:13;17.33;;;9.82;;
71777;SDS011;59609;52.430;4.668;2024-01-30T04:41:38;18.35;;;10.52;;
71777;SDS011;59609;52.430;4.668;2024-01-30T04:44:04;18.88;;;10.23;;
71777;SDS011;59609;52.430;4.668;2024-01-30T04:46:30;18.40;;;10.30;;
71777;SDS011;59609;52.430;4.668;2024-01-30T04:48:55;19.50;;;9.70;;
71777;SDS011;59609;52.430;4.668;2024-01-30T04:51:20;19.10;;;10.82;;
71777;SDS011;59609;52.430;4.668;2024-01-30T04:53:46;17.58;;;10.13;;
71777;SDS011;59609;52.430;4.668;2024-01-30T04:56:11;21.05;;;10.40;;
71777;SDS011;59609;52.430;4.668;2024-01-30T04:58:36;22.15;;;10.68;;
71777;SDS011;59609;52.430;4.668;2024-01-30T05:01:02;19.77;;;10.50;;
71777;SDS011;59609;52.430;4.668;2024-01-30T05:03:28;19.45;;;9.35;;
71777;SDS011;59609;52.430;4.668;2024-01-30T05:05:53;16.90;;;10.45;;
71777;SDS011;59609;52.430;4.668;2024-01-30T05:08:18;15.52;;;9.02;;
71777;SDS011;59609;52.430;4.668;2024-01-30T05:10:44;16.20;;;8.65;;
71777;SDS011;59609;52.430;4.668;2024-01-30T05:13:09;15.75;;;9.00;;
71777;SDS011;59609;52.430;4.668;2024-01-30T05:15:35;16.20;;;9.88;;
71777;SDS011;59609;52.430;4.668;2024-01-30T05:18:00;16.38;;;8.98;;
71777;SDS011;59609;52.430;4.668;2024-01-30T05:20:25;18.38;;;9.18;;
71777;SDS011;59609;52.430;4.668;2024-01-30T05:22:53;15.05;;;9.23;;
71777;SDS011;59609;52.430;4.668;2024-01-30T05:25:18;15.65;;;10.00;;
71777;SDS011;59609;52.430;4.668;2024-01-30T05:27:44;16.73;;;9.95;;
71777;SDS011;59609;52.430;4.668;2024-01-30T05:30:09;15.80;;;8.90;;
71777;SDS011;59609;52.430;4.668;2024-01-30T05:32:35;15.98;;;8.80;;
71777;SDS011;59609;52.430;4.668;2024-01-30T05:35:01;18.17;;;10.40;;
71777;SDS011;59609;52.430;4.668;2024-01-30T05:37:26;20.27;;;9.65;;
71777;SDS011;59609;52.430;4.668;2024-01-30T05:39:52;14.73;;;8.88;;
71777;SDS011;59609;52.430;4.668;2024-01-30T05:42:17;17.63;;;9.80;;
71777;SDS011;59609;52.430;4.668;2024-01-30T05:44:42;16.35;;;9.73;;
71777;SDS011;59609;52.430;4.668;2024-01-30T05:47:08;15.23;;;8.85;;
71777;SDS011;59609;52.430;4.668;2024-01-30T05:49:33;18.80;;;10.02;;
71777;SDS011;59609;52.430;4.668;2024-01-30T05:51:59;16.77;;;8.82;;
71777;SDS011;59609;52.430;4.668;2024-01-30T05:54:25;15.18;;;9.10;;
71777;SDS011;59609;52.430;4.668;2024-01-30T05:56:50;18.30;;;9.77;;
71777;SDS011;59609;52.430;4.668;2024-01-30T05:59:16;16.95;;;9.73;;
71777;SDS011;59609;52.430;4.668;2024-01-30T06:01:47;14.07;;;9.07;;
71777;SDS011;59609;52.430;4.668;2024-01-30T06:04:13;16.48;;;9.57;;
71777;SDS011;59609;52.430;4.668;2024-01-30T06:06:39;16.70;;;7.93;;
71777;SDS011;59609;52.430;4.668;2024-01-30T06:09:04;18.65;;;9.60;;
71777;SDS011;59609;52.430;4.668;2024-01-30T06:11:29;15.93;;;8.55;;
71777;SDS011;59609;52.430;4.668;2024-01-30T06:13:55;19.48;;;9.23;;
71777;SDS011;59609;52.430;4.668;2024-01-30T06:16:20;15.68;;;8.75;;
71777;SDS011;59609;52.430;4.668;2024-01-30T06:18:46;15.43;;;9.30;;
71777;SDS011;59609;52.430;4.668;2024-01-30T06:21:12;19.30;;;8.88;;
71777;SDS011;59609;52.430;4.668;2024-01-30T06:23:38;16.45;;;9.48;;
71777;SDS011;59609;52.430;4.668;2024-01-30T06:26:03;18.35;;;10.45;;
71777;SDS011;59609;52.430;4.668;2024-01-30T06:28:29;15.65;;;9.15;;
71777;SDS011;59609;52.430;4.668;2024-01-30T06:30:54;14.88;;;8.75;;
71777;SDS011;59609;52.430;4.668;2024-01-30T06:33:19;14.95;;;9.23;;
71777;SDS011;59609;52.430;4.668;2024-01-30T06:35:45;15.30;;;9.18;;
71777;SDS011;59609;52.430;4.668;2024-01-30T06:38:11;16.88;;;9.88;;
71777;SDS011;59609;52.430;4.668;2024-01-30T06:40:36;19.05;;;9.57;;
71777;SDS011;59609;52.430;4.668;2024-01-30T06:43:03;17.08;;;8.93;;
71777;SDS011;59609;52.430;4.668;2024-01-30T06:45:30;16.52;;;9.40;;
71777;SDS011;59609;52.430;4.668;2024-01-30T06:47:55;15.63;;;8.23;;
71777;SDS011;59609;52.430;4.668;2024-01-30T06:50:20;14.75;;;8.43;;
71777;SDS011;59609;52.430;4.668;2024-01-30T06:52:46;15.65;;;9.00;;
71777;SDS011;59609;52.430;4.668;2024-01-30T06:55:11;15.32;;;6.90;;
71777;SDS011;59609;52.430;4.668;2024-01-30T06:57:37;14.68;;;8.05;;
71777;SDS011;59609;52.430;4.668;2024-01-30T07:00:02;15.88;;;8.18;;
71777;SDS011;59609;52.430;4.668;2024-01-30T07:02:28;11.25;;;6.65;;
71777;SDS011;59609;52.430;4.668;2024-01-30T07:04:53;12.80;;;7.70;;
71777;SDS011;59609;52.430;4.668;2024-01-30T07:07:18;15.82;;;8.10;;
71777;SDS011;59609;52.430;4.668;2024-01-30T07:09:44;14.10;;;8.10;;
71777;SDS011;59609;52.430;4.668;2024-01-30T07:12:09;14.07;;;7.40;;
71777;SDS011;59609;52.430;4.668;2024-01-30T07:14:35;15.10;;;7.75;;
71777;SDS011;59609;52.430;4.668;2024-01-30T07:17:01;11.32;;;7.18;;
71777;SDS011;59609;52.430;4.668;2024-01-30T07:19:26;14.32;;;7.32;;
71777;SDS011;59609;52.430;4.668;2024-01-30T07:21:52;18.83;;;8.40;;
71777;SDS011;59609;52.430;4.668;2024-01-30T07:24:17;13.27;;;7.40;;
71777;SDS011;59609;52.430;4.668;2024-01-30T07:26:42;12.55;;;7.57;;
71777;SDS011;59609;52.430;4.668;2024-01-30T07:29:08;13.45;;;7.40;;
71777;SDS011;59609;52.430;4.668;2024-01-30T07:31:33;14.15;;;7.38;;
71777;SDS011;59609;52.430;4.668;2024-01-30T07:33:58;12.10;;;7.88;;
71777;SDS011;59609;52.430;4.668;2024-01-30T07:36:24;11.30;;;6.57;;
71777;SDS011;59609;52.430;4.668;2024-01-30T07:38:49;12.95;;;7.55;;
71777;SDS011;59609;52.430;4.668;2024-01-30T07:41:15;14.82;;;6.68;;
71777;SDS011;59609;52.430;4.668;2024-01-30T07:43:40;14.63;;;7.43;;
71777;SDS011;59609;52.430;4.668;2024-01-30T07:46:05;14.25;;;6.85;;
71777;SDS011;59609;52.430;4.668;2024-01-30T07:48:31;13.77;;;6.97;;
71777;SDS011;59609;52.430;4.668;2024-01-30T07:51:00;13.95;;;7.75;;
71777;SDS011;59609;52.430;4.668;2024-01-30T07:53:25;13.82;;;7.20;;
71777;SDS011;59609;52.430;4.668;2024-01-30T07:55:51;13.20;;;7.72;;
71777;SDS011;59609;52.430;4.668;2024-01-30T07:58:17;13.52;;;7.45;;
71777;SDS011;59609;52.430;4.668;2024-01-30T08:00:42;15.40;;;7.75;;
71777;SDS011;59609;52.430;4.668;2024-01-30T08:03:08;16.33;;;8.27;;
71777;SDS011;59609;52.430;4.668;2024-01-30T08:05:33;12.55;;;7.40;;
71777;SDS011;59609;52.430;4.668;2024-01-30T08:07:58;19.25;;;7.80;;
71777;SDS011;59609;52.430;4.668;2024-01-30T08:10:24;15.43;;;8.00;;
71777;SDS011;59609;52.430;4.668;2024-01-30T08:12:49;16.42;;;7.88;;
71777;SDS011;59609;52.430;4.668;2024-01-30T08:15:15;14.95;;;6.63;;
71777;SDS011;59609;52.430;4.668;2024-01-30T08:17:40;14.38;;;7.28;;
71777;SDS011;59609;52.430;4.668;2024-01-30T08:20:06;14.15;;;7.47;;
71777;SDS011;59609;52.430;4.668;2024-01-30T08:22:33;14.93;;;7.22;;
71777;SDS011;59609;52.430;4.668;2024-01-30T08:24:58;17.88;;;8.02;;
71777;SDS011;59609;52.430;4.668;2024-01-30T08:27:23;13.73;;;7.75;;
71777;SDS011;59609;52.430;4.668;2024-01-30T08:29:49;14.38;;;6.32;;
71777;SDS011;59609;52.430;4.668;2024-01-30T08:32:15;11.73;;;6.53;;
71777;SDS011;59609;52.430;4.668;2024-01-30T08:34:40;16.98;;;6.65;;
71777;SDS011;59609;52.430;4.668;2024-01-30T08:37:06;14.43;;;7.53;;
71777;SDS011;59609;52.430;4.668;2024-01-30T08:39:31;11.63;;;6.47;;
71777;SDS011;59609;52.430;4.668;2024-01-30T08:41:56;12.25;;;5.28;;
71777;SDS011;59609;52.430;4.668;2024-01-30T08:44:22;15.10;;;5.60;;
71777;SDS011;59609;52.430;4.668;2024-01-30T08:46:48;14.32;;;5.35;;
71777;SDS011;59609;52.430;4.668;2024-01-30T08:49:16;16.80;;;5.55;;
71777;SDS011;59609;52.430;4.668;2024-01-30T08:51:41;8.20;;;3.45;;
71777;SDS011;59609;52.430;4.668;2024-01-30T08:54:07;17.25;;;4.15;;
71777;SDS011;59609;52.430;4.668;2024-01-30T08:56:32;11.25;;;4.43;;
71777;SDS011;59609;52.430;4.668;2024-01-30T08:58:58;11.57;;;3.60;;
71777;SDS011;59609;52.430;4.668;2024-01-30T09:01:23;14.18;;;3.35;;
71777;SDS011;59609;52.430;4.668;2024-01-30T09:03:50;17.33;;;4.03;;
71777;SDS011;59609;52.430;4.668;2024-01-30T09:06:15;12.07;;;4.53;;
71777;SDS011;59609;52.430;4.668;2024-01-30T09:08:40;11.65;;;4.18;;
71777;SDS011;59609;52.430;4.668;2024-01-30T09:11:09;14.00;;;4.22;;
71777;SDS011;59609;52.430;4.668;2024-01-30T09:13:35;12.05;;;3.83;;
71777;SDS011;59609;52.430;4.668;2024-01-30T09:16:01;12.23;;;3.35;;
71777;SDS011;59609;52.430;4.668;2024-01-30T09:18:26;15.85;;;4.13;;
71777;SDS011;59609;52.430;4.668;2024-01-30T09:20:51;17.13;;;4.07;;
71777;SDS011;59609;52.430;4.668;2024-01-30T09:23:17;13.52;;;3.92;;
71777;SDS011;59609;52.430;4.668;2024-01-30T09:25:44;10.95;;;3.15;;
71777;SDS011;59609;52.430;4.668;2024-01-30T09:28:10;12.05;;;3.97;;
71777;SDS011;59609;52.430;4.668;2024-01-30T09:30:35;14.50;;;2.80;;
71777;SDS011;59609;52.430;4.668;2024-01-30T09:33:01;9.85;;;2.58;;
71777;SDS011;59609;52.430;4.668;2024-01-30T09:35:26;13.18;;;2.42;;
71777;SDS011;59609;52.430;4.668;2024-01-30T09:37:51;11.77;;;2.38;;
71777;SDS011;59609;52.430;4.668;2024-01-30T09:40:17;10.20;;;2.22;;
71777;SDS011;59609;52.430;4.668;2024-01-30T09:42:44;10.32;;;1.98;;
71777;SDS011;59609;52.430;4.668;2024-01-30T09:45:12;5.43;;;1.52;;
71777;SDS011;59609;52.430;4.668;2024-01-30T09:47:42;8.55;;;1.55;;
71777;SDS011;59609;52.430;4.668;2024-01-30T09:50:12;12.45;;;2.17;;
71777;SDS011;59609;52.430;4.668;2024-01-30T09:52:39;6.53;;;1.90;;
71777;SDS011;59609;52.430;4.668;2024-01-30T09:55:05;12.18;;;2.50;;
71777;SDS011;59609;52.430;4.668;2024-01-30T09:57:31;8.90;;;1.25;;
71777;SDS011;59609;52.430;4.668;2024-01-30T09:59:57;11.80;;;1.67;;
71777;SDS011;59609;52.430;4.668;2024-01-30T10:02:23;13.95;;;2.78;;
71777;SDS011;59609;52.430;4.668;2024-01-30T10:04:49;15.32;;;1.90;;
71777;SDS011;59609;52.430;4.668;2024-01-30T10:07:16;12.88;;;3.30;;
71777;SDS011;59609;52.430;4.668;2024-01-30T10:09:43;6.85;;;2.00;;
71777;SDS011;59609;52.430;4.668;2024-01-30T10:12:11;10.88;;;2.75;;
71777;SDS011;59609;52.430;4.668;2024-01-30T10:14:40;9.95;;;1.85;;
71777;SDS011;59609;52.430;4.668;2024-01-30T10:17:10;8.52;;;1.77;;
71777;SDS011;59609;52.430;4.668;2024-01-30T10:19:37;7.78;;;2.45;;
71777;SDS011;59609;52.430;4.668;2024-01-30T10:22:03;11.98;;;1.60;;
71777;SDS011;59609;52.430;4.668;2024-01-30T10:24:29;4.75;;;1.67;;
71777;SDS011;59609;52.430;4.668;2024-01-30T10:26:55;9.35;;;1.60;;
71777;SDS011;59609;52.430;4.668;2024-01-30T10:29:21;13.82;;;1.80;;
71777;SDS011;59609;52.430;4.668;2024-01-30T10:31:56;10.52;;;2.30;;
71777;SDS011;59609;52.430;4.668;2024-01-30T10:34:28;10.52;;;1.50;;
71777;SDS011;59609;52.430;4.668;2024-01-30T10:37:07;8.90;;;2.40;;
71777;SDS011;59609;52.430;4.668;2024-01-30T10:39:42;10.15;;;1.88;;
71777;SDS011;59609;52.430;4.668;2024-01-30T10:42:11;6.47;;;2.08;;
71777;SDS011;59609;52.430;4.668;2024-01-30T10:47:19;8.70;;;1.75;;
71777;SDS011;59609;52.430;4.668;2024-01-30T10:49:51;9.07;;;1.75;;
71777;SDS011;59609;52.430;4.668;2024-01-30T10:52:17;6.25;;;0.90;;
71777;SDS011;59609;52.430;4.668;2024-01-30T10:54:44;2.03;;;1.08;;
71777;SDS011;59609;52.430;4.668;2024-01-30T10:57:09;7.82;;;1.75;;
71777;SDS011;59609;52.430;4.668;2024-01-30T10:59:37;15.00;;;2.15;;
71777;SDS011;59609;52.430;4.668;2024-01-30T11:02:04;4.70;;;1.63;;
71777;SDS011;59609;52.430;4.668;2024-01-30T11:04:37;9.30;;;3.05;;
71777;SDS011;59609;52.430;4.668;2024-01-30T11:07:03;6.03;;;1.63;;
71777;SDS011;59609;52.430;4.668;2024-01-30T11:12:26;8.73;;;1.60;;
71777;SDS011;59609;52.430;4.668;2024-01-30T11:15:02;13.75;;;2.20;;
71777;SDS011;59609;52.430;4.668;2024-01-30T11:17:39;9.13;;;1.83;;
71777;SDS011;59609;52.430;4.668;2024-01-30T11:20:20;6.07;;;1.40;;
71777;SDS011;59609;52.430;4.668;2024-01-30T11:22:56;7.68;;;1.60;;
71777;SDS011;59609;52.430;4.668;2024-01-30T11:25:22;8.18;;;2.00;;
71777;SDS011;59609;52.430;4.668;2024-01-30T11:27:49;12.68;;;1.60;;
71777;SDS011;59609;52.430;4.668;2024-01-30T11:38:06;4.72;;;1.30;;
71777;SDS011;59609;52.430;4.668;2024-01-30T11:40:32;8.10;;;1.50;;
71777;SDS011;59609;52.430;4.668;2024-01-30T11:42:59;6.38;;;1.48;;
71777;SDS011;59609;52.430;4.668;2024-01-30T11:45:27;10.45;;;1.85;;
71777;SDS011;59609;52.430;4.668;2024-01-30T11:47:52;7.55;;;1.48;;
71777;SDS011;59609;52.430;4.668;2024-01-30T11:50:18;7.13;;;1.52;;
71777;SDS011;59609;52.430;4.668;2024-01-30T11:52:45;10.13;;;1.40;;
71777;SDS011;59609;52.430;4.668;2024-01-30T11:55:10;13.30;;;2.40;;
71777;SDS011;59609;52.430;4.668;2024-01-30T11:57:37;13.50;;;2.47;;
71777;SDS011;59609;52.430;4.668;2024-01-30T12:00:03;10.15;;;1.77;;
71777;SDS011;59609;52.430;4.668;2024-01-30T12:02:38;6.90;;;1.60;;
71777;SDS011;59609;52.430;4.668;2024-01-30T12:05:05;9.90;;;1.63;;
71777;SDS011;59609;52.430;4.668;2024-01-30T12:07:31;10.80;;;1.65;;
71777;SDS011;59609;52.430;4.668;2024-01-30T12:09:57;6.72;;;1.52;;
71777;SDS011;59609;52.430;4.668;2024-01-30T12:12:25;10.75;;;1.42;;
71777;SDS011;59609;52.430;4.668;2024-01-30T12:14:52;10.07;;;2.80;;
71777;SDS011;59609;52.430;4.668;2024-01-30T12:17:51;7.20;;;1.67;;
71777;SDS011;59609;52.430;4.668;2024-01-30T12:20:17;7.55;;;2.28;;
71777;SDS011;59609;52.430;4.668;2024-01-30T12:22:44;9.63;;;1.50;;
71777;SDS011;59609;52.430;4.668;2024-01-30T12:25:11;7.50;;;1.65;;
71777;SDS011;59609;52.430;4.668;2024-01-30T12:27:38;7.57;;;1.52;;
71777;SDS011;59609;52.430;4.668;2024-01-30T12:30:05;10.98;;;1.38;;
71777;SDS011;59609;52.430;4.668;2024-01-30T12:32:38;17.25;;;1.70;;
71777;SDS011;59609;52.430;4.668;2024-01-30T12:35:11;12.77;;;1.98;;
71777;SDS011;59609;52.430;4.668;2024-01-30T12:37:39;9.00;;;1.63;;
71777;SDS011;59609;52.430;4.668;2024-01-30T12:40:05;7.90;;;1.85;;
71777;SDS011;59609;52.430;4.668;2024-01-30T12:42:33;8.00;;;1.85;;
71777;SDS011;59609;52.430;4.668;2024-01-30T12:44:58;9.43;;;2.10;;
71777;SDS011;59609;52.430;4.668;2024-01-30T12:47:24;7.72;;;1.52;;
71777;SDS011;59609;52.430;4.668;2024-01-30T12:49:50;6.63;;;1.40;;
71777;SDS011;59609;52.430;4.668;2024-01-30T12:52:18;6.22;;;1.52;;
71777;SDS011;59609;52.430;4.668;2024-01-30T12:54:46;8.93;;;1.35;;
71777;SDS011;59609;52.430;4.668;2024-01-30T12:57:11;3.22;;;1.13;;
71777;SDS011;59609;52.430;4.668;2024-01-30T12:59:37;6.55;;;1.80;;
71777;SDS011;59609;52.430;4.668;2024-01-30T13:02:02;6.85;;;1.80;;
71777;SDS011;59609;52.430;4.668;2024-01-30T13:04:28;4.70;;;1.52;;
71777;SDS011;59609;52.430;4.668;2024-01-30T13:06:54;6.70;;;1.45;;
71777;SDS011;59609;52.430;4.668;2024-01-30T13:09:19;9.18;;;2.28;;
71777;SDS011;59609;52.430;4.668;2024-01-30T13:11:45;5.43;;;1.88;;
71777;SDS011;59609;52.430;4.668;2024-01-30T13:14:11;6.55;;;1.90;;
71777;SDS011;59609;52.430;4.668;2024-01-30T13:16:36;8.15;;;2.20;;
71777;SDS011;59609;52.430;4.668;2024-01-30T13:19:02;9.63;;;1.95;;
71777;SDS011;59609;52.430;4.668;2024-01-30T13:21:27;6.40;;;1.90;;
71777;SDS011;59609;52.430;4.668;2024-01-30T13:23:53;11.45;;;2.53;;
71777;SDS011;59609;52.430;4.668;2024-01-30T13:26:19;9.77;;;2.13;;
71777;SDS011;59609;52.430;4.668;2024-01-30T13:28:45;6.65;;;2.05;;
71777;SDS011;59609;52.430;4.668;2024-01-30T13:31:11;7.28;;;2.13;;
71777;SDS011;59609;52.430;4.668;2024-01-30T13:33:37;5.57;;;2.35;;
71777;SDS011;59609;52.430;4.668;2024-01-30T13:36:03;7.85;;;2.20;;
71777;SDS011;59609;52.430;4.668;2024-01-30T13:38:28;6.43;;;2.75;;
71777;SDS011;59609;52.430;4.668;2024-01-30T13:40:53;4.80;;;2.20;;
71777;SDS011;59609;52.430;4.668;2024-01-30T13:43:19;7.22;;;2.20;;
71777;SDS011;59609;52.430;4.668;2024-01-30T13:45:44;9.70;;;2.33;;
71777;SDS011;59609;52.430;4.668;2024-01-30T13:48:11;6.13;;;2.05;;
71777;SDS011;59609;52.430;4.668;2024-01-30T13:50:36;9.70;;;2.45;;
71777;SDS011;59609;52.430;4.668;2024-01-30T13:53:02;6.63;;;2.53;;
71777;SDS011;59609;52.430;4.668;2024-01-30T13:55:28;9.25;;;2.63;;
71777;SDS011;59609;52.430;4.668;2024-01-30T13:57:54;8.85;;;3.05;;
71777;SDS011;59609;52.430;4.668;2024-01-30T14:00:20;12.93;;;3.17;;
71777;SDS011;59609;52.430;4.668;2024-01-30T14:02:47;7.45;;;2.30;;
71777;SDS011;59609;52.430;4.668;2024-01-30T14:05:12;6.25;;;1.88;;
71777;SDS011;59609;52.430;4.668;2024-01-30T14:07:39;8.55;;;2.22;;
71777;SDS011;59609;52.430;4.668;2024-01-30T14:10:05;6.18;;;2.47;;
71777;SDS011;59609;52.430;4.668;2024-01-30T14:12:31;4.03;;;1.95;;
71777;SDS011;59609;52.430;4.668;2024-01-30T14:14:56;7.60;;;2.65;;
71777;SDS011;59609;52.430;4.668;2024-01-30T14:17:22;7.75;;;2.47;;
71777;SDS011;59609;52.430;4.668;2024-01-30T14:19:47;2.72;;;2.50;;
71777;SDS011;59609;52.430;4.668;2024-01-30T14:22:12;5.50;;;2.13;;
71777;SDS011;59609;52.430;4.668;2024-01-30T14:24:38;2.83;;;2.03;;
71777;SDS011;59609;52.430;4.668;2024-01-30T14:27:03;2.90;;;1.85;;
71777;SDS011;59609;52.430;4.668;2024-01-30T14:29:29;7.68;;;2.40;;
71777;SDS011;59609;52.430;4.668;2024-01-30T14:31:54;4.63;;;2.30;;
71777;SDS011;59609;52.430;4.668;2024-01-30T14:34:20;4.57;;;2.30;;
71777;SDS011;59609;52.430;4.668;2024-01-30T14:36:45;3.42;;;1.95;;
71777;SDS011;59609;52.430;4.668;2024-01-30T14:39:11;7.15;;;2.40;;
71777;SDS011;59609;52.430;4.668;2024-01-30T14:41:36;5.30;;;2.30;;
71777;SDS011;59609;52.430;4.668;2024-01-30T14:44:01;8.25;;;2.67;;